Aérodrome :
LOGIN :

S'inscrire | Disclaimer

   EN    FR    IT 

 










Légende :    VFR   VFR Marginal   IFR   IFR Intensif   IFR Très Intensif
Visi : 
Plafond : 
>= 8 km
>= 3000ft
5 à 8 km
1000 à 3000 ft
1500m à 5 km
500 à 1000 ft
800 à 1500m
200 à 500 ft
< 800m
< 200 ft
Symboles :   Orages  Brouillard  Fortes neiges  Fortes précipitations  Vent > 20 kt
SIGMETs :   Divers  Orages  Givrage  Turbulence  Onde Orograph.  Cendres Volcan.







- Altitude de l'aérodrome : 93 ft
- Code IATA : XRY


LEJR - Jerez

DERNIER METAR :
  • 222230Z AUTO 11004KT 070V140 9999 NCD 25/15 Q1015

METARs EXPIRÉS :
  • 222200Z AUTO 10005KT 070V140 9999 NCD 26/15 Q1015
  • 222130Z AUTO 12006KT 100V160 9999 NCD 26/16 Q1015
  • 222100Z 11006KT 060V160 CAVOK 26/16 Q1015
  • 222030Z 10006KT 060V140 CAVOK 27/16 Q1015
  • 222000Z 10006KT 060V150 CAVOK 27/16 Q1014

TAF TAF LEJR
Valide du 22 à 18h jusqu'au 23 à 18h UTC


221700Z 2218/2318 12012KT CAVOK TX35/2314Z TN21/2306Z
TEMPO 2221/2302 VRB03KT
PROB40
TEMPO 2309/2315 12015G25KT
Pas de NOTAMs connus pour ce terrain.



MET'MAP, la Météo Aéronautique d'un coup d'oeil ! - Copyright ORBIFLY Décembre 2007 - Disclaimer

ORBIFLY MET'MAP TEAM :

Programmation & Développement : Alexandra Zaïnal
Conception & Développement : Baudouin d'Aumeries
Co-Programmation & Développement : Marc-Olivier Méhu
Soutien technique & logistique : Manuel Goepfert

Contact : metmap@orbifly.com




SOURCES & CREDITS :

   NOAA